createdAt,value
2022-12-08T00:00:17.591Z,27.20
2022-12-08T00:02:47.568Z,28.00
2022-12-08T00:05:30.148Z,27.70
2022-12-08T00:08:15.155Z,28.00
2022-12-08T00:10:49.468Z,27.90
2022-12-08T00:13:19.828Z,27.60
2022-12-08T00:15:49.683Z,27.40
2022-12-08T00:18:19.524Z,27.40
2022-12-08T00:20:49.365Z,27.30
2022-12-08T00:23:21.720Z,27.10
2022-12-08T00:25:51.508Z,27.50
2022-12-08T00:28:21.815Z,28.00
2022-12-08T00:30:51.654Z,28.70
2022-12-08T00:33:21.428Z,28.60
2022-12-08T00:35:51.212Z,28.80
2022-12-08T00:38:23.571Z,28.90
2022-12-08T00:40:53.420Z,28.70
2022-12-08T00:43:23.271Z,28.60
2022-12-08T00:45:53.207Z,28.00
2022-12-08T00:48:23.057Z,26.60
2022-12-08T00:50:53.033Z,25.20
2022-12-08T00:53:25.420Z,24.10
2022-12-08T00:55:55.204Z,23.20
2022-12-08T00:58:25.036Z,23.10
2022-12-08T01:00:54.915Z,23.00
2022-12-08T01:03:25.556Z,22.70
2022-12-08T01:05:55.648Z,22.60
2022-12-08T01:08:28.110Z,22.80
2022-12-08T01:10:57.980Z,22.60
2022-12-08T01:13:27.776Z,22.00
2022-12-08T01:15:57.613Z,21.60
2022-12-08T01:18:27.728Z,21.50
2022-12-08T01:20:57.599Z,21.70
2022-12-08T01:23:31.167Z,22.20
2022-12-08T01:26:05.866Z,22.50
2022-12-08T01:28:36.692Z,22.90
2022-12-08T01:31:06.701Z,23.30
2022-12-08T01:33:36.631Z,23.10
2022-12-08T01:36:07.006Z,23.70
2022-12-08T01:38:39.358Z,23.70
2022-12-08T01:41:09.383Z,23.70
2022-12-08T01:44:04.528Z,23.70
2022-12-08T01:46:35.311Z,24.10
2022-12-08T01:49:09.223Z,24.50
2022-12-08T01:51:45.164Z,24.90
2022-12-08T01:54:18.245Z,24.90
2022-12-08T01:57:00.789Z,25.20
2022-12-08T01:59:33.261Z,25.50
2022-12-08T02:02:03.306Z,26.10
2022-12-08T02:04:33.072Z,26.40
2022-12-08T02:07:07.819Z,25.60
2022-12-08T02:09:42.777Z,25.60
2022-12-08T02:12:12.998Z,26.10
2022-12-08T02:14:43.009Z,26.90
2022-12-08T02:17:27.002Z,26.40
2022-12-08T02:20:26.011Z,26.50
2022-12-08T02:23:04.221Z,26.40
2022-12-08T02:25:49.333Z,26.50
2022-12-08T02:28:49.427Z,26.70
2022-12-08T02:31:32.871Z,26.80
2022-12-08T02:34:16.179Z,26.80
2022-12-08T02:36:53.736Z,26.60
2022-12-08T02:39:35.917Z,26.30
2022-12-08T02:42:18.505Z,26.60
2022-12-08T02:44:55.585Z,26.50
2022-12-08T02:47:27.768Z,26.70
2022-12-08T02:50:01.658Z,26.90
2022-12-08T02:52:46.209Z,27.50
2022-12-08T02:55:29.128Z,27.40
2022-12-08T02:58:29.395Z,26.60
2022-12-08T03:01:14.467Z,27.00
2022-12-08T03:03:53.877Z,27.10
2022-12-08T03:06:34.315Z,27.10
2022-12-08T03:09:10.045Z,26.90
2022-12-08T03:11:46.804Z,26.80
2022-12-08T03:14:20.184Z,26.70
2022-12-08T03:16:53.404Z,26.60
2022-12-08T03:19:26.709Z,26.60
2022-12-08T03:22:03.267Z,26.50
2022-12-08T03:24:36.049Z,26.90
2022-12-08T03:27:09.834Z,27.10
2022-12-08T03:29:39.813Z,27.10
2022-12-08T03:32:15.969Z,27.20
2022-12-08T03:34:48.836Z,27.00
2022-12-08T03:37:21.579Z,26.70
2022-12-08T03:39:51.595Z,27.00
2022-12-08T03:42:21.547Z,27.20
2022-12-08T03:44:51.384Z,27.30
2022-12-08T03:47:21.198Z,27.50
2022-12-08T03:49:51.055Z,27.90
2022-12-08T03:52:23.468Z,28.20
2022-12-08T03:54:53.443Z,28.10
2022-12-08T03:57:23.284Z,27.60
2022-12-08T03:59:53.190Z,27.60
2022-12-08T04:02:23.081Z,27.50
2022-12-08T04:04:52.911Z,27.60
2022-12-08T04:07:25.330Z,27.30
2022-12-08T04:09:55.088Z,27.90
2022-12-08T04:12:24.898Z,28.10
2022-12-08T04:14:54.745Z,27.90
2022-12-08T04:17:24.585Z,27.70
2022-12-08T04:19:54.452Z,28.10
2022-12-08T04:22:26.807Z,28.40
2022-12-08T04:24:56.854Z,28.50
2022-12-08T04:27:26.776Z,28.40
2022-12-08T04:29:56.551Z,28.50
2022-12-08T04:32:26.340Z,28.10
2022-12-08T04:34:56.143Z,28.10
2022-12-08T04:37:28.607Z,28.10
2022-12-08T04:39:58.608Z,27.70
2022-12-08T04:42:28.440Z,27.40
2022-12-08T04:44:58.211Z,27.30
2022-12-08T04:47:28.016Z,26.90
2022-12-08T04:49:57.868Z,26.60
2022-12-08T04:52:30.292Z,26.60
2022-12-08T04:55:00.043Z,26.10
2022-12-08T04:57:29.929Z,26.40
2022-12-08T04:59:59.913Z,26.20
2022-12-08T05:02:29.812Z,26.00
2022-12-08T05:04:59.669Z,25.70
2022-12-08T05:07:32.111Z,26.40
2022-12-08T05:10:02.134Z,26.80
2022-12-08T05:12:32.198Z,27.10
2022-12-08T05:15:01.964Z,27.40
2022-12-08T05:17:31.908Z,27.60
2022-12-08T05:20:02.045Z,27.70
2022-12-08T05:22:34.660Z,27.70
2022-12-08T05:25:04.424Z,27.90
2022-12-08T05:27:34.292Z,28.40
2022-12-08T05:30:04.385Z,28.40
2022-12-08T05:32:34.616Z,28.60
2022-12-08T05:35:04.483Z,28.60
2022-12-08T05:37:37.258Z,28.70
2022-12-08T05:40:08.221Z,28.60
2022-12-08T05:42:38.060Z,28.60
2022-12-08T05:45:08.978Z,28.90
2022-12-08T05:47:38.823Z,28.60
2022-12-08T05:50:10.359Z,28.50
2022-12-08T05:52:42.667Z,28.30
2022-12-08T05:55:13.112Z,28.40
2022-12-08T05:57:42.911Z,28.30
2022-12-08T06:00:13.858Z,27.40
2022-12-08T06:02:43.837Z,27.80
2022-12-08T06:05:13.704Z,27.00
2022-12-08T06:07:46.298Z,27.00
2022-12-08T06:10:16.120Z,27.50
2022-12-08T06:12:45.864Z,27.40
2022-12-08T06:15:15.641Z,27.50
2022-12-08T06:17:45.376Z,27.10
2022-12-08T06:20:15.464Z,26.50
2022-12-08T06:22:47.844Z,26.70
2022-12-08T06:25:20.956Z,26.30
2022-12-08T06:27:50.791Z,26.10
2022-12-08T06:30:21.088Z,26.20
2022-12-08T06:32:50.887Z,26.10
2022-12-08T06:35:20.876Z,26.00
2022-12-08T06:37:53.687Z,25.60
2022-12-08T06:40:23.550Z,25.40
2022-12-08T06:42:53.417Z,25.60
2022-12-08T06:45:23.304Z,25.30
2022-12-08T06:47:53.108Z,25.30
2022-12-08T06:50:23.187Z,24.60
2022-12-08T06:53:04.493Z,24.30
2022-12-08T06:55:57.817Z,23.90
2022-12-08T06:58:24.504Z,24.30
2022-12-08T07:00:54.361Z,24.20
2022-12-08T07:03:24.136Z,24.10
2022-12-08T07:06:03.572Z,24.60
2022-12-08T07:08:37.433Z,23.50
2022-12-08T07:11:14.106Z,23.90
2022-12-08T07:13:46.535Z,24.00
2022-12-08T07:16:16.647Z,23.50
2022-12-08T07:18:46.644Z,23.50
2022-12-08T07:21:17.478Z,23.40
2022-12-08T07:23:57.320Z,23.60
2022-12-08T07:26:28.100Z,22.90
2022-12-08T07:28:57.848Z,22.40
2022-12-08T07:31:29.020Z,21.70
2022-12-08T07:33:59.915Z,21.00
2022-12-08T07:36:30.003Z,20.60
2022-12-08T07:39:02.345Z,21.00
2022-12-08T07:41:32.148Z,21.10
2022-12-08T07:44:01.950Z,21.10
2022-12-08T07:46:31.878Z,20.70
2022-12-08T07:49:01.677Z,20.40
2022-12-08T07:51:31.568Z,19.30
2022-12-08T07:54:03.916Z,20.00
2022-12-08T07:56:34.772Z,19.80
2022-12-08T07:59:04.560Z,19.50
2022-12-08T08:01:36.716Z,19.00
2022-12-08T08:04:08.335Z,19.30
2022-12-08T08:06:38.870Z,19.00
2022-12-08T08:09:11.842Z,18.40
2022-12-08T08:11:41.680Z,18.80
2022-12-08T08:14:11.426Z,18.10
2022-12-08T08:16:46.354Z,18.00
2022-12-08T08:19:16.243Z,17.00
2022-12-08T08:21:46.541Z,16.90
2022-12-08T08:24:19.239Z,16.70
2022-12-08T08:26:48.997Z,17.00
2022-12-08T08:29:18.838Z,16.20
2022-12-08T08:31:48.656Z,16.20
2022-12-08T08:34:18.627Z,16.00
2022-12-08T08:36:48.525Z,15.30
2022-12-08T08:39:21.020Z,15.30
2022-12-08T08:41:50.859Z,15.40
2022-12-08T08:44:20.599Z,14.80
2022-12-08T08:46:50.464Z,14.60
2022-12-08T08:49:20.283Z,15.50
2022-12-08T08:51:50.480Z,16.10
2022-12-08T08:54:22.916Z,15.30
2022-12-08T08:56:52.743Z,14.40
2022-12-08T08:59:22.587Z,14.70
2022-12-08T09:01:52.583Z,13.70
2022-12-08T09:04:25.673Z,13.80
2022-12-08T09:06:55.563Z,13.30
2022-12-08T09:09:27.961Z,13.70
2022-12-08T09:11:57.929Z,13.40
2022-12-08T09:14:28.018Z,13.10
2022-12-08T09:16:57.915Z,12.40
2022-12-08T09:19:28.760Z,11.50
2022-12-08T09:21:59.017Z,10.50
2022-12-08T09:24:31.657Z,10.60
2022-12-08T09:27:01.548Z,9.60
2022-12-08T09:29:35.963Z,10.50
2022-12-08T09:32:06.508Z,9.40
2022-12-08T09:34:36.395Z,9.70
2022-12-08T09:37:06.228Z,8.60
2022-12-08T09:39:38.676Z,7.70
2022-12-08T09:42:09.914Z,7.30
2022-12-08T09:44:51.908Z,7.60
2022-12-08T09:47:28.396Z,5.40
2022-12-08T09:50:07.975Z,5.80
2022-12-08T09:52:50.052Z,4.70
2022-12-08T09:55:25.120Z,4.10
2022-12-08T09:58:05.360Z,3.80
2022-12-08T10:00:42.990Z,3.80
2022-12-08T10:03:16.864Z,2.50
2022-12-08T10:05:52.466Z,2.60
2022-12-08T10:08:28.138Z,2.30
2022-12-08T10:11:02.309Z,1.00
2022-12-08T10:13:38.213Z,1.00
2022-12-08T10:16:28.005Z,1.00
2022-12-08T10:19:04.203Z,1.00
2022-12-08T10:21:34.426Z,1.00
2022-12-08T10:24:13.057Z,1.00
2022-12-08T10:26:46.123Z,1.00
2022-12-08T10:29:16.802Z,1.00
2022-12-08T10:31:46.623Z,1.00
2022-12-08T10:34:20.432Z,1.00
2022-12-08T10:36:56.180Z,1.00
2022-12-08T10:39:37.427Z,1.00
2022-12-08T10:42:22.204Z,1.00
2022-12-08T10:45:03.429Z,1.00
2022-12-08T10:47:42.496Z,1.00
2022-12-08T10:50:24.000Z,1.00
2022-12-08T10:52:58.656Z,1.00
2022-12-08T10:55:28.655Z,1.00
2022-12-08T10:58:01.002Z,1.00
2022-12-08T11:00:31.374Z,1.00
2022-12-08T11:03:27.586Z,1.00
2022-12-08T11:06:03.969Z,1.00
2022-12-08T11:08:45.849Z,1.00
2022-12-08T11:11:16.950Z,1.00
2022-12-08T11:13:52.989Z,1.00
2022-12-08T11:16:23.121Z,1.00
2022-12-08T11:18:59.535Z,1.00
2022-12-08T11:21:39.384Z,1.00
2022-12-08T11:24:25.916Z,1.00
2022-12-08T11:27:02.495Z,1.00
2022-12-08T11:29:36.745Z,1.00
2022-12-08T11:32:14.082Z,1.00
2022-12-08T11:34:48.751Z,1.00
2022-12-08T11:37:21.644Z,1.00
2022-12-08T11:39:54.172Z,1.00
2022-12-08T11:42:27.301Z,1.00
2022-12-08T11:45:03.270Z,1.00
2022-12-08T11:47:40.380Z,1.00
2022-12-08T11:50:22.215Z,1.00
2022-12-08T11:52:54.248Z,1.00
2022-12-08T11:55:38.985Z,1.00
2022-12-08T11:58:17.451Z,1.00
2022-12-08T12:00:50.100Z,1.00
2022-12-08T12:03:29.819Z,1.00
2022-12-08T12:06:53.293Z,1.00
2022-12-08T12:09:16.152Z,1.00
2022-12-08T12:12:12.645Z,1.00
2022-12-08T12:15:01.083Z,1.00
2022-12-08T12:17:44.853Z,1.00
2022-12-08T12:20:20.119Z,1.00
2022-12-08T12:22:55.124Z,1.00
2022-12-08T12:25:28.044Z,1.00
2022-12-08T12:28:02.613Z,1.00
2022-12-08T12:30:35.573Z,1.00
2022-12-08T12:33:13.485Z,1.00
2022-12-08T12:35:47.966Z,1.00
2022-12-08T12:38:36.038Z,1.00
2022-12-08T12:41:08.111Z,1.00
2022-12-08T12:43:39.859Z,1.00
2022-12-08T12:46:39.783Z,1.00
2022-12-08T12:49:39.715Z,1.00
2022-12-08T12:52:43.261Z,1.00
2022-12-08T12:55:53.771Z,1.00
2022-12-08T12:58:42.761Z,1.00
2022-12-08T13:01:49.432Z,1.00
2022-12-08T13:04:20.287Z,1.00
2022-12-08T13:06:53.037Z,1.00
2022-12-08T13:09:31.655Z,1.00
2022-12-08T13:12:06.814Z,1.00
2022-12-08T13:14:39.012Z,1.00
2022-12-08T13:17:14.428Z,1.00
2022-12-08T13:19:51.756Z,1.00
2022-12-08T13:22:52.150Z,1.00
2022-12-08T13:25:53.968Z,1.00
2022-12-08T13:28:27.727Z,1.00
2022-12-08T13:31:00.219Z,1.00
2022-12-08T13:33:35.363Z,1.00
2022-12-08T13:36:14.399Z,1.00
2022-12-08T13:38:48.271Z,1.00
2022-12-08T13:41:25.718Z,1.00
2022-12-08T13:44:56.727Z,1.00
2022-12-08T13:47:32.388Z,1.00
2022-12-08T13:51:51.219Z,1.00
2022-12-08T13:58:38.038Z,1.00
2022-12-08T14:01:10.751Z,1.00
2022-12-08T14:04:20.492Z,1.00
2022-12-08T14:06:41.857Z,1.00
2022-12-08T14:09:16.439Z,1.00
2022-12-08T14:11:49.869Z,1.00
2022-12-08T14:14:46.285Z,1.00
2022-12-08T14:17:20.171Z,1.00
2022-12-08T14:19:57.648Z,1.00
2022-12-08T14:22:27.606Z,1.00
2022-12-08T14:24:57.601Z,1.00
2022-12-08T14:27:30.448Z,1.00
2022-12-08T14:30:05.008Z,1.00
2022-12-08T14:32:36.557Z,1.00
2022-12-08T14:35:21.349Z,1.00
2022-12-08T14:37:53.301Z,1.00
2022-12-08T14:40:26.641Z,1.00
2022-12-08T14:43:08.641Z,1.00
2022-12-08T14:45:50.659Z,1.00
2022-12-08T14:48:28.360Z,1.00
2022-12-08T14:51:04.005Z,1.00
2022-12-08T14:53:40.765Z,1.00
2022-12-08T14:56:17.134Z,1.00
2022-12-08T14:58:47.450Z,1.00
2022-12-08T15:01:24.489Z,1.00
2022-12-08T15:03:55.535Z,1.00
2022-12-08T15:06:25.800Z,1.00
2022-12-08T15:08:58.673Z,1.00
2022-12-08T15:11:38.460Z,1.00
2022-12-08T15:14:33.624Z,1.00
2022-12-08T15:17:06.992Z,1.00
2022-12-08T15:19:37.203Z,1.00
2022-12-08T15:22:24.544Z,1.00
2022-12-08T15:24:54.160Z,1.00
2022-12-08T15:27:26.879Z,1.00
2022-12-08T15:29:56.726Z,1.00
2022-12-08T15:32:29.065Z,1.00
2022-12-08T15:34:58.992Z,1.00
2022-12-08T15:37:29.129Z,1.00
2022-12-08T15:39:58.877Z,1.00
2022-12-08T15:42:28.709Z,1.00
2022-12-08T15:44:58.552Z,1.00
2022-12-08T15:47:32.760Z,1.00
2022-12-08T15:50:04.843Z,1.00
2022-12-08T15:52:36.853Z,1.00
2022-12-08T15:55:07.175Z,1.00
2022-12-08T15:58:30.745Z,1.00
2022-12-08T16:09:21.744Z,1.00
2022-12-08T16:12:07.845Z,1.00
2022-12-08T16:17:31.832Z,1.00
2022-12-08T16:20:05.606Z,1.00
2022-12-08T16:22:56.735Z,1.00
2022-12-08T16:25:27.316Z,1.00
2022-12-08T16:28:02.959Z,1.00
2022-12-08T16:30:36.109Z,1.00
2022-12-08T16:33:06.301Z,1.00
2022-12-08T16:35:38.642Z,1.00
2022-12-08T16:38:08.586Z,1.00
2022-12-08T16:40:59.293Z,1.00
2022-12-08T16:43:26.487Z,1.00
2022-12-08T16:45:56.308Z,1.00
2022-12-08T16:48:26.125Z,1.00
2022-12-08T16:50:58.883Z,1.00
2022-12-08T16:53:28.759Z,1.00
2022-12-08T16:55:59.294Z,1.00
2022-12-08T16:58:30.079Z,1.00
2022-12-08T17:01:00.233Z,1.00
2022-12-08T17:03:30.290Z,1.00
2022-12-08T17:06:02.718Z,1.00
2022-12-08T17:08:34.826Z,1.00
2022-12-08T17:11:12.151Z,1.00
2022-12-08T17:13:44.699Z,1.00
2022-12-08T17:16:19.167Z,1.00
2022-12-08T17:18:49.782Z,1.00
2022-12-08T17:21:22.932Z,1.00
2022-12-08T17:23:52.840Z,1.00
2022-12-08T17:26:22.680Z,1.00
2022-12-08T17:29:00.566Z,1.00
2022-12-08T17:31:32.353Z,1.00
2022-12-08T17:34:02.974Z,1.40
2022-12-08T17:36:35.408Z,1.20
2022-12-08T17:39:07.549Z,1.90
2022-12-08T17:41:38.176Z,1.90
2022-12-08T17:44:14.689Z,3.00
2022-12-08T17:46:50.710Z,3.10
2022-12-08T17:49:24.691Z,2.10
2022-12-08T17:51:59.296Z,3.00
2022-12-08T17:54:29.347Z,2.70
2022-12-08T17:56:59.945Z,2.50
2022-12-08T17:59:31.184Z,3.80
2022-12-08T18:02:01.794Z,3.80
2022-12-08T18:04:32.095Z,3.90
2022-12-08T18:07:04.555Z,3.80
2022-12-08T18:09:34.586Z,4.20
2022-12-08T18:12:04.418Z,4.70
2022-12-08T18:14:34.406Z,3.90
2022-12-08T18:17:04.304Z,3.30
2022-12-08T18:19:34.153Z,2.30
2022-12-08T18:22:06.720Z,3.00
2022-12-08T18:24:36.547Z,3.20
2022-12-08T18:27:06.687Z,3.60
2022-12-08T18:29:36.860Z,2.40
2022-12-08T18:32:06.680Z,3.00
2022-12-08T18:34:37.032Z,2.00
2022-12-08T18:37:09.984Z,2.00
2022-12-08T18:39:40.238Z,2.80
2022-12-08T18:42:22.492Z,2.90
2022-12-08T18:44:52.749Z,3.20
2022-12-08T18:47:22.552Z,3.20
2022-12-08T18:49:52.431Z,2.90
2022-12-08T18:52:31.137Z,3.40
2022-12-08T18:55:07.065Z,3.30
2022-12-08T18:57:37.622Z,3.60
2022-12-08T19:00:10.149Z,3.80
2022-12-08T19:02:40.394Z,3.80
2022-12-08T19:05:12.207Z,3.90
2022-12-08T19:07:45.733Z,3.80
2022-12-08T19:10:16.040Z,3.40
2022-12-08T19:12:45.905Z,3.80
2022-12-08T19:15:17.499Z,3.90
2022-12-08T19:17:47.418Z,4.00
2022-12-08T19:20:17.506Z,4.40
2022-12-08T19:22:50.066Z,4.50
2022-12-08T19:25:21.327Z,4.00
2022-12-08T19:27:51.141Z,4.50
2022-12-08T19:30:21.047Z,4.30
2022-12-08T19:32:52.498Z,3.90
2022-12-08T19:35:22.436Z,3.90
2022-12-08T19:37:55.058Z,3.40
2022-12-08T19:40:37.551Z,3.70
2022-12-08T19:43:19.993Z,3.50
2022-12-08T19:45:49.861Z,3.90
2022-12-08T19:48:19.839Z,4.20
2022-12-08T19:50:49.867Z,4.90
2022-12-08T19:53:23.386Z,4.50
2022-12-08T19:55:53.649Z,4.70
2022-12-08T19:58:23.583Z,4.20
2022-12-08T20:00:53.491Z,4.90
2022-12-08T20:03:24.882Z,5.30
2022-12-08T20:05:55.455Z,4.20
2022-12-08T20:08:28.760Z,3.90
2022-12-08T20:10:59.439Z,3.80
2022-12-08T20:13:41.805Z,3.90
2022-12-08T20:16:11.765Z,3.80
2022-12-08T20:18:42.299Z,4.90
2022-12-08T20:21:13.588Z,5.80
2022-12-08T20:23:48.787Z,6.40
2022-12-08T20:26:20.905Z,7.10
2022-12-08T20:28:51.196Z,7.30
2022-12-08T20:31:22.195Z,8.20
2022-12-08T20:33:52.376Z,9.00
2022-12-08T20:36:23.794Z,8.80
2022-12-08T20:38:57.248Z,8.00
2022-12-08T20:41:27.254Z,7.70
2022-12-08T20:43:57.095Z,7.20
2022-12-08T20:46:26.969Z,7.70
2022-12-08T20:48:59.301Z,8.70
2022-12-08T20:51:31.998Z,9.60
2022-12-08T20:54:04.733Z,9.50
2022-12-08T20:56:35.060Z,9.10
2022-12-08T20:59:05.213Z,7.80
2022-12-08T21:01:35.305Z,7.10
2022-12-08T21:04:05.467Z,5.50
2022-12-08T21:06:35.571Z,4.50
2022-12-08T21:09:09.045Z,4.50
2022-12-08T21:11:39.311Z,4.20
2022-12-08T21:14:09.408Z,3.50
2022-12-08T21:16:39.632Z,4.60
2022-12-08T21:19:09.879Z,5.00
2022-12-08T21:21:40.207Z,5.10
2022-12-08T21:24:12.967Z,5.00
2022-12-08T21:26:42.837Z,5.00
2022-12-08T21:29:14.142Z,4.70
2022-12-08T21:31:44.184Z,4.70
2022-12-08T21:34:14.379Z,4.00
2022-12-08T21:36:44.327Z,3.50
2022-12-08T21:39:16.733Z,3.40
2022-12-08T21:41:59.136Z,3.40
2022-12-08T21:44:29.380Z,1.20
2022-12-08T21:46:59.409Z,1.30
2022-12-08T21:49:29.457Z,1.00
2022-12-08T21:51:59.544Z,1.30
2022-12-08T21:54:32.184Z,1.00
2022-12-08T21:57:02.103Z,1.10
2022-12-08T21:59:32.176Z,2.00
2022-12-08T22:02:02.537Z,2.20
2022-12-08T22:04:32.679Z,1.90
2022-12-08T22:07:02.653Z,1.00
2022-12-08T22:09:35.332Z,1.00
2022-12-08T22:12:05.319Z,1.40
2022-12-08T22:14:35.294Z,2.00
2022-12-08T22:17:05.285Z,1.60
2022-12-08T22:19:35.501Z,1.60
2022-12-08T22:22:05.522Z,1.90
2022-12-08T22:24:37.884Z,1.40
2022-12-08T22:27:07.594Z,1.90
2022-12-08T22:29:37.630Z,1.90
2022-12-08T22:32:08.056Z,2.30
2022-12-08T22:34:38.187Z,2.10
2022-12-08T22:37:08.159Z,2.20
2022-12-08T22:39:40.606Z,1.50
2022-12-08T22:42:10.761Z,1.00
2022-12-08T22:44:43.237Z,1.00
2022-12-08T22:47:13.061Z,1.40
2022-12-08T22:49:42.939Z,1.60
2022-12-08T22:52:12.665Z,2.00
2022-12-08T22:54:45.091Z,1.60
2022-12-08T22:57:14.896Z,1.30
2022-12-08T22:59:44.784Z,1.10
2022-12-08T23:02:14.764Z,2.20
2022-12-08T23:04:46.372Z,2.60
2022-12-08T23:07:16.497Z,3.30
2022-12-08T23:09:49.105Z,4.20
2022-12-08T23:12:19.124Z,5.70
2022-12-08T23:14:48.916Z,5.80
2022-12-08T23:17:18.934Z,6.20
2022-12-08T23:19:48.921Z,5.80
2022-12-08T23:22:18.744Z,4.90
2022-12-08T23:24:51.108Z,5.40
2022-12-08T23:27:21.095Z,5.80
2022-12-08T23:29:50.961Z,5.70
2022-12-08T23:32:20.792Z,4.90
2022-12-08T23:34:50.779Z,4.30
2022-12-08T23:37:20.585Z,3.50
2022-12-08T23:39:53.088Z,3.00
2022-12-08T23:42:22.935Z,2.20
2022-12-08T23:44:52.853Z,2.60
2022-12-08T23:47:22.740Z,2.50
2022-12-08T23:49:52.641Z,3.70
2022-12-08T23:52:22.536Z,4.40
2022-12-08T23:54:55.665Z,5.60
2022-12-08T23:57:25.549Z,5.30
2022-12-08T23:59:55.406Z,5.40
